Time;durP1;ratioP1;P1;durP2;ratioP2;P2;SDS_P1;SDS_P2;PMS_P1;PMS_P2;Temp;Humidity;BMP_temperature;BMP_pressure;BME280_temperature;BME280_humidity;BME280_pressure;Samples;Min_cycle;Max_cycle;Signal;HPM_P1;HPM_P2
2023/08/25 00:00:15;;;;;;;22.23;14.20;;;18.70;99.90;;;;;;5042810;28;20033;-61
2023/08/25 00:02:41;;;;;;;22.67;13.48;;;18.60;99.90;;;;;;5045823;28;20054;-63
2023/08/25 00:05:06;;;;;;;25.25;14.20;;;18.60;99.90;;;;;;5037960;28;20028;-58
2023/08/25 00:07:32;;;;;;;27.35;13.80;;;18.60;99.90;;;;;;5040652;28;20029;-62
2023/08/25 00:09:58;;;;;;;23.42;12.48;;;18.60;99.90;;;;;;5042192;28;20822;-62
2023/08/25 00:12:24;;;;;;;24.65;12.00;;;18.60;99.90;;;;;;5034164;28;20036;-60
2023/08/25 00:14:49;;;;;;;27.00;13.20;;;18.60;99.90;;;;;;5039067;28;20488;-62
2023/08/25 00:17:15;;;;;;;19.08;11.55;;;18.60;99.90;;;;;;5046363;28;20029;-61
2023/08/25 00:19:40;;;;;;;29.33;14.18;;;18.70;99.90;;;;;;5038659;28;20040;-62
2023/08/25 00:22:06;;;;;;;22.02;13.45;;;18.60;99.90;;;;;;5041486;28;20394;-61
2023/08/25 00:24:32;;;;;;;27.35;13.00;;;18.60;99.90;;;;;;5033375;28;20480;-62
2023/08/25 00:26:59;;;;;;;23.05;13.18;;;18.60;99.90;;;;;;5038629;28;20053;-64
2023/08/25 00:29:24;;;;;;;23.40;12.82;;;18.60;99.90;;;;;;5032523;28;20022;-62
2023/08/25 00:31:51;;;;;;;18.30;12.65;;;18.60;99.90;;;;;;5034343;28;20040;-62
2023/08/25 00:34:16;;;;;;;20.98;11.27;;;18.50;99.90;;;;;;5036969;28;20042;-62
2023/08/25 00:36:42;;;;;;;21.88;10.75;;;18.60;99.90;;;;;;5035099;28;20052;-62
2023/08/25 00:39:07;;;;;;;21.63;10.48;;;18.60;99.90;;;;;;5033464;28;20048;-61
2023/08/25 00:41:33;;;;;;;19.20;10.50;;;18.60;99.90;;;;;;5044090;28;20059;-61
2023/08/25 00:43:59;;;;;;;24.52;10.00;;;18.50;99.90;;;;;;5038891;28;20048;-62
2023/08/25 00:46:24;;;;;;;20.73;9.55;;;18.50;99.90;;;;;;5030299;28;20045;-61
2023/08/25 00:48:50;;;;;;;18.90;9.63;;;18.40;99.90;;;;;;5030231;28;20390;-61
2023/08/25 00:51:16;;;;;;;24.20;10.10;;;18.40;99.90;;;;;;5032388;28;20029;-61
2023/08/25 00:53:43;;;;;;;16.50;9.68;;;18.40;99.90;;;;;;5037475;28;20033;-60
2023/08/25 00:56:10;;;;;;;21.95;10.15;;;18.40;99.90;;;;;;5044958;28;20430;-61
2023/08/25 00:58:36;;;;;;;18.90;9.23;;;18.40;99.90;;;;;;5032078;28;20028;-61
2023/08/25 01:01:04;;;;;;;22.20;9.77;;;18.40;99.90;;;;;;5041855;28;20888;-61
2023/08/25 01:03:29;;;;;;;16.50;8.75;;;18.30;99.90;;;;;;5042945;28;20048;-61
2023/08/25 01:05:55;;;;;;;15.02;8.30;;;18.30;99.90;;;;;;5040336;28;20483;-60
2023/08/25 01:08:22;;;;;;;16.70;8.30;;;18.30;99.90;;;;;;5035779;28;20554;-60
2023/08/25 01:11:18;;;;;;;12.82;6.90;;;18.30;99.90;;;;;;5039682;28;20040;-60
2023/08/25 01:14:12;;;;;;;12.20;6.88;;;18.30;99.90;;;;;;5043409;28;20040;-60
2023/08/25 01:16:51;;;;;;;9.95;6.55;;;18.30;99.90;;;;;;5035741;28;20043;-60
2023/08/25 01:19:54;;;;;;;9.73;6.43;;;18.30;99.90;;;;;;5044441;28;20036;-61
2023/08/25 01:23:04;;;;;;;13.73;6.15;;;18.40;99.90;;;;;;5034015;28;20026;-62
2023/08/25 01:25:30;;;;;;;11.73;5.88;;;18.30;99.90;;;;;;5011150;28;20413;-60
2023/08/25 01:28:00;;;;;;;14.82;6.32;;;18.30;99.90;;;;;;5009323;28;20268;-62
2023/08/25 01:30:27;;;;;;;12.30;5.55;;;18.20;99.90;;;;;;5024527;28;20041;-60
2023/08/25 01:32:54;;;;;;;10.45;6.10;;;18.20;99.90;;;;;;5029958;28;20041;-62
2023/08/25 01:35:42;;;;;;;9.82;6.40;;;18.20;99.90;;;;;;5038292;28;20026;-62
2023/08/25 01:38:23;;;;;;;9.82;5.90;;;18.10;99.90;;;;;;5034484;28;20437;-60
2023/08/25 01:40:56;;;;;;;13.25;6.13;;;18.10;99.90;;;;;;5029447;28;20075;-60
2023/08/25 01:43:27;;;;;;;14.35;6.00;;;18.10;99.90;;;;;;5029593;28;20444;-62
2023/08/25 01:45:54;;;;;;;11.60;5.85;;;18.10;99.90;;;;;;5028097;28;20035;-63
2023/08/25 01:48:20;;;;;;;7.20;5.68;;;18.00;99.90;;;;;;5037872;28;20430;-62
2023/08/25 01:50:46;;;;;;;13.80;5.68;;;18.00;99.90;;;;;;5028166;28;20037;-62
2023/08/25 01:53:12;;;;;;;16.33;5.82;;;17.90;99.90;;;;;;5033116;28;20080;-61
2023/08/25 01:55:38;;;;;;;12.25;6.47;;;17.90;99.90;;;;;;5026811;28;20051;-62
2023/08/25 01:58:04;;;;;;;10.18;6.43;;;17.90;99.90;;;;;;5029216;28;20506;-63
2023/08/25 02:00:29;;;;;;;14.15;6.20;;;18.00;99.90;;;;;;5027437;28;20040;-61
2023/08/25 02:02:55;;;;;;;10.15;5.47;;;18.00;99.90;;;;;;5028740;28;20444;-61
2023/08/25 02:05:22;;;;;;;12.52;6.30;;;18.00;99.90;;;;;;5031125;28;20030;-61
2023/08/25 02:07:47;;;;;;;11.00;6.72;;;18.00;99.90;;;;;;5031648;28;21884;-61
2023/08/25 02:10:13;;;;;;;13.13;5.60;;;18.00;99.90;;;;;;5031141;28;20039;-61
2023/08/25 02:12:39;;;;;;;13.13;6.45;;;18.00;99.90;;;;;;5036837;28;20037;-61
2023/08/25 02:15:05;;;;;;;14.57;6.47;;;18.00;99.90;;;;;;5030810;28;20025;-62
2023/08/25 02:17:30;;;;;;;13.90;5.93;;;18.00;99.90;;;;;;5029544;28;20029;-61
2023/08/25 02:19:56;;;;;;;10.30;4.53;;;17.90;99.90;;;;;;5028040;28;20112;-62
2023/08/25 02:22:21;;;;;;;9.00;4.78;;;17.90;99.90;;;;;;5035298;28;20116;-62
2023/08/25 02:24:47;;;;;;;16.52;5.82;;;17.90;99.90;;;;;;5025744;28;20403;-61
2023/08/25 02:27:13;;;;;;;7.05;4.38;;;17.90;99.90;;;;;;5030179;28;20072;-62
2023/08/25 02:29:38;;;;;;;10.35;5.00;;;18.00;99.90;;;;;;5042640;28;20029;-63
2023/08/25 02:32:04;;;;;;;12.10;4.68;;;18.00;99.90;;;;;;5032782;28;20037;-61
2023/08/25 02:34:29;;;;;;;10.20;4.93;;;17.90;99.90;;;;;;5043838;28;20635;-61
2023/08/25 02:36:55;;;;;;;6.53;4.22;;;17.90;99.90;;;;;;5023362;28;20112;-61
2023/08/25 02:39:20;;;;;;;13.50;4.55;;;17.90;99.90;;;;;;5035483;28;20460;-61
2023/08/25 02:41:46;;;;;;;15.32;4.53;;;17.90;99.90;;;;;;5040808;28;20056;-60
2023/08/25 02:44:12;;;;;;;11.35;4.70;;;17.80;99.90;;;;;;5047221;28;20025;-62
2023/08/25 02:46:37;;;;;;;8.60;4.70;;;17.70;99.90;;;;;;5031367;28;20021;-62
2023/08/25 02:49:03;;;;;;;13.25;5.28;;;17.70;99.90;;;;;;5038445;28;20021;-61
2023/08/25 02:51:29;;;;;;;8.85;4.88;;;17.70;99.90;;;;;;5035529;28;20037;-59
2023/08/25 02:53:54;;;;;;;14.40;5.18;;;17.70;99.90;;;;;;5040427;28;20108;-60
2023/08/25 02:56:20;;;;;;;8.45;4.95;;;17.70;99.90;;;;;;5036401;28;20040;-62
2023/08/25 02:58:45;;;;;;;11.07;4.53;;;17.60;99.90;;;;;;5035447;28;20025;-61
2023/08/25 03:01:12;;;;;;;14.82;5.50;;;17.60;99.90;;;;;;5034010;28;20024;-62
2023/08/25 03:03:37;;;;;;;15.02;5.57;;;17.60;99.90;;;;;;5042824;28;20506;-62
2023/08/25 03:06:03;;;;;;;13.57;5.50;;;17.60;99.90;;;;;;5032884;28;20029;-62
2023/08/25 03:08:28;;;;;;;13.32;6.18;;;17.60;99.90;;;;;;5042011;28;20034;-61
2023/08/25 03:10:54;;;;;;;10.85;6.20;;;17.60;99.90;;;;;;5041409;28;20036;-62
2023/08/25 03:13:19;;;;;;;7.43;5.40;;;17.60;99.90;;;;;;5036405;28;20131;-62
2023/08/25 03:15:48;;;;;;;12.88;5.50;;;17.70;99.90;;;;;;5030301;28;20030;-62
2023/08/25 03:18:14;;;;;;;9.70;5.95;;;17.70;99.90;;;;;;5030819;28;20029;-61
2023/08/25 03:20:40;;;;;;;19.90;6.28;;;17.70;99.90;;;;;;5031789;28;20037;-61
2023/08/25 03:23:05;;;;;;;16.98;6.18;;;17.70;99.90;;;;;;5029771;28;20392;-62
2023/08/25 03:25:31;;;;;;;13.02;6.53;;;17.70;99.90;;;;;;5037570;28;20484;-61
2023/08/25 03:27:57;;;;;;;15.45;6.63;;;17.70;99.90;;;;;;5034277;28;20029;-61
2023/08/25 03:30:23;;;;;;;14.25;6.55;;;17.80;99.90;;;;;;5039872;28;20922;-62
2023/08/25 03:32:48;;;;;;;11.80;6.35;;;17.70;99.90;;;;;;5030853;28;20506;-61
2023/08/25 03:35:14;;;;;;;18.52;6.93;;;17.70;99.90;;;;;;5035233;28;20276;-62
2023/08/25 03:37:39;;;;;;;17.30;7.20;;;17.70;99.90;;;;;;5038535;28;20040;-61
2023/08/25 03:40:05;;;;;;;13.30;7.07;;;17.70;99.90;;;;;;5038741;28;20104;-62
2023/08/25 03:42:31;;;;;;;16.63;7.40;;;17.80;99.90;;;;;;5043543;28;20615;-62
2023/08/25 03:44:56;;;;;;;15.10;7.15;;;17.70;99.90;;;;;;5028315;28;20029;-59
2023/08/25 03:47:22;;;;;;;15.32;6.50;;;17.70;99.90;;;;;;5029904;28;20037;-63
2023/08/25 03:49:48;;;;;;;10.93;5.90;;;17.70;99.90;;;;;;5036838;28;20032;-62
2023/08/25 03:52:14;;;;;;;16.23;6.68;;;17.80;99.90;;;;;;5029297;28;20032;-62
2023/08/25 03:54:39;;;;;;;22.23;7.55;;;17.80;99.90;;;;;;5032577;28;20032;-62
2023/08/25 03:57:07;;;;;;;15.10;7.07;;;17.80;99.90;;;;;;5028706;28;20033;-62
2023/08/25 03:59:33;;;;;;;21.58;7.07;;;17.80;99.90;;;;;;5030014;28;20021;-61
2023/08/25 04:01:59;;;;;;;14.00;6.95;;;17.80;99.90;;;;;;5037692;28;20031;-63
2023/08/25 04:04:25;;;;;;;15.43;7.45;;;17.80;99.90;;;;;;5030020;28;20060;-62
2023/08/25 04:06:52;;;;;;;12.23;7.40;;;17.90;99.90;;;;;;5032143;28;20099;-63
2023/08/25 04:09:17;;;;;;;14.00;7.45;;;17.90;99.90;;;;;;5029236;28;20033;-62
2023/08/25 04:11:43;;;;;;;15.73;7.13;;;17.90;99.90;;;;;;5034793;28;20052;-62
2023/08/25 04:14:08;;;;;;;14.82;7.97;;;17.90;99.90;;;;;;5030812;28;20055;-62
2023/08/25 04:16:34;;;;;;;15.88;7.97;;;17.90;99.90;;;;;;5033113;28;20402;-63
2023/08/25 04:18:59;;;;;;;11.68;7.03;;;18.00;99.90;;;;;;5031191;28;20514;-62
2023/08/25 04:21:25;;;;;;;20.38;9.02;;;18.00;99.90;;;;;;5031937;28;20036;-62
2023/08/25 04:23:50;;;;;;;21.42;8.48;;;17.90;99.90;;;;;;5036165;28;20025;-62
2023/08/25 04:26:16;;;;;;;12.23;8.13;;;18.00;99.90;;;;;;5028984;28;20041;-62
2023/08/25 04:28:41;;;;;;;14.98;9.05;;;18.10;99.90;;;;;;5032175;28;20125;-62
2023/08/25 04:31:07;;;;;;;19.52;8.98;;;18.10;99.90;;;;;;5029084;28;20033;-64
2023/08/25 04:33:32;;;;;;;17.17;9.35;;;18.10;99.90;;;;;;5037375;28;20029;-63
2023/08/25 04:35:58;;;;;;;16.00;10.57;;;18.10;99.90;;;;;;5040594;28;20065;-63
2023/08/25 04:38:23;;;;;;;23.98;12.38;;;18.20;99.90;;;;;;5038707;28;20120;-58
2023/08/25 04:40:49;;;;;;;16.83;10.18;;;18.30;99.90;;;;;;5034460;28;20148;-58
2023/08/25 04:43:14;;;;;;;22.27;11.60;;;18.30;99.90;;;;;;5037511;28;20029;-58
2023/08/25 04:45:40;;;;;;;30.40;13.18;;;18.40;99.90;;;;;;5038548;28;20044;-58
2023/08/25 04:48:06;;;;;;;18.95;11.90;;;18.40;99.90;;;;;;5037705;28;20044;-56
2023/08/25 04:50:31;;;;;;;20.58;12.98;;;18.40;99.90;;;;;;5037051;28;20041;-58
2023/08/25 04:52:57;;;;;;;19.88;11.80;;;18.50;99.90;;;;;;5037562;28;20576;-58
2023/08/25 04:55:22;;;;;;;27.80;13.25;;;18.50;99.90;;;;;;5038005;28;20134;-57
2023/08/25 04:57:48;;;;;;;19.90;11.85;;;18.50;99.90;;;;;;5031673;28;20043;-59
2023/08/25 05:00:14;;;;;;;17.80;12.10;;;18.50;99.90;;;;;;5027891;28;20040;-60
2023/08/25 05:02:40;;;;;;;23.88;13.18;;;18.50;99.90;;;;;;5036527;28;20106;-59
2023/08/25 05:05:07;;;;;;;21.55;11.95;;;18.50;99.90;;;;;;5036263;28;20082;-58
2023/08/25 05:07:32;;;;;;;23.83;14.30;;;18.50;99.90;;;;;;5033569;28;20070;-59
2023/08/25 05:09:58;;;;;;;23.30;12.70;;;18.50;99.90;;;;;;5041680;28;20096;-61
2023/08/25 05:12:23;;;;;;;23.02;13.02;;;18.50;99.90;;;;;;5036724;28;20368;-59
2023/08/25 05:14:49;;;;;;;21.65;13.55;;;18.50;99.90;;;;;;5036569;28;20076;-59
2023/08/25 05:17:14;;;;;;;23.23;12.82;;;18.60;99.90;;;;;;5031657;28;20131;-60
2023/08/25 05:19:40;;;;;;;18.90;12.68;;;18.60;99.90;;;;;;5029716;28;20029;-60
2023/08/25 05:22:05;;;;;;;22.05;13.40;;;18.60;99.90;;;;;;5032340;28;20108;-58
2023/08/25 05:24:31;;;;;;;23.52;13.85;;;18.60;99.90;;;;;;5029880;28;20028;-57
2023/08/25 05:26:56;;;;;;;22.60;12.98;;;18.70;99.90;;;;;;5029626;28;20040;-57
2023/08/25 05:29:26;;;;;;;18.10;11.80;;;18.80;99.90;;;;;;5040438;28;20112;-58
2023/08/25 05:31:52;;;;;;;24.08;14.35;;;18.80;99.90;;;;;;5029468;28;20029;-61
2023/08/25 05:34:18;;;;;;;31.40;15.32;;;18.90;99.90;;;;;;5026551;28;20514;-58
2023/08/25 05:36:44;;;;;;;22.58;13.38;;;18.90;99.90;;;;;;5034316;28;20045;-60
2023/08/25 05:39:11;;;;;;;27.35;14.68;;;19.00;99.90;;;;;;5040255;28;20104;-57
2023/08/25 05:41:37;;;;;;;24.00;14.20;;;19.00;99.90;;;;;;5040282;28;20049;-58
2023/08/25 05:44:03;;;;;;;30.08;17.20;;;19.00;99.90;;;;;;5033654;28;20110;-58
2023/08/25 05:46:30;;;;;;;32.03;16.23;;;19.10;99.90;;;;;;5037531;28;20507;-58
2023/08/25 05:48:56;;;;;;;24.48;14.80;;;19.10;99.90;;;;;;5037455;28;20112;-57
2023/08/25 05:51:23;;;;;;;31.38;15.48;;;19.20;99.90;;;;;;5041298;28;20024;-60
2023/08/25 05:53:49;;;;;;;27.63;17.63;;;19.20;99.90;;;;;;5046520;28;20106;-60
2023/08/25 05:56:14;;;;;;;30.65;17.20;;;19.30;99.90;;;;;;5040773;28;20033;-58
2023/08/25 05:58:42;;;;;;;25.83;17.23;;;19.30;99.90;;;;;;5038381;28;20113;-57
2023/08/25 06:01:07;;;;;;;31.55;17.83;;;19.30;99.90;;;;;;5036948;28;20032;-58
2023/08/25 06:03:33;;;;;;;28.13;16.23;;;19.30;99.90;;;;;;5039440;28;20029;-60
2023/08/25 06:05:59;;;;;;;30.23;18.95;;;19.40;99.90;;;;;;5040737;28;20052;-59
2023/08/25 06:08:24;;;;;;;27.13;15.68;;;19.40;99.90;;;;;;5039835;28;20024;-56
2023/08/25 06:10:52;;;;;;;29.95;17.75;;;19.40;99.90;;;;;;5044333;28;21817;-57
2023/08/25 06:13:18;;;;;;;38.00;19.17;;;19.40;99.90;;;;;;5045138;28;20025;-60
2023/08/25 06:15:43;;;;;;;37.13;21.30;;;19.40;99.90;;;;;;5040488;28;20021;-58
2023/08/25 06:18:09;;;;;;;38.97;22.23;;;19.40;99.90;;;;;;5032270;28;20029;-58
2023/08/25 06:20:35;;;;;;;35.58;20.13;;;19.50;99.90;;;;;;5037439;28;20033;-59
2023/08/25 06:23:01;;;;;;;33.67;22.13;;;19.60;99.90;;;;;;5035434;28;20013;-57
2023/08/25 06:25:26;;;;;;;30.50;20.13;;;19.60;99.90;;;;;;5038677;28;20036;-61
2023/08/25 06:27:52;;;;;;;37.15;23.15;;;19.60;99.90;;;;;;5043004;28;20542;-58
2023/08/25 06:30:17;;;;;;;31.10;20.10;;;19.60;99.90;;;;;;5043688;28;20033;-57
2023/08/25 06:32:43;;;;;;;34.60;21.35;;;19.70;99.90;;;;;;5038576;28;20029;-55
2023/08/25 06:35:11;;;;;;;35.67;21.77;;;19.80;99.90;;;;;;5037899;28;20048;-58
2023/08/25 06:37:37;;;;;;;37.63;23.08;;;19.70;99.90;;;;;;5040719;28;20022;-56
2023/08/25 06:40:05;;;;;;;30.83;19.90;;;19.80;99.90;;;;;;5039643;28;20044;-59
2023/08/25 06:42:31;;;;;;;34.63;20.38;;;19.90;99.90;;;;;;5039866;28;20030;-59
2023/08/25 06:44:56;;;;;;;33.20;20.75;;;20.00;99.90;;;;;;5037117;28;20083;-55
2023/08/25 06:47:22;;;;;;;32.22;20.65;;;20.00;99.90;;;;;;5042798;28;20049;-60
2023/08/25 06:49:47;;;;;;;32.22;20.77;;;20.10;99.90;;;;;;5034196;28;20025;-56
2023/08/25 06:52:13;;;;;;;28.80;20.25;;;20.20;99.90;;;;;;5038703;28;20029;-58
2023/08/25 06:54:39;;;;;;;28.05;18.10;;;20.20;99.90;;;;;;5043217;28;20032;-56
2023/08/25 06:57:04;;;;;;;29.73;18.60;;;20.20;99.90;;;;;;5040021;28;20500;-58
2023/08/25 06:59:30;;;;;;;27.85;18.60;;;20.20;99.90;;;;;;5044912;28;20025;-58
2023/08/25 07:01:55;;;;;;;34.90;19.48;;;20.30;99.90;;;;;;5038159;28;20079;-58
2023/08/25 07:04:21;;;;;;;31.35;19.35;;;20.30;99.90;;;;;;5043617;28;20073;-57
2023/08/25 07:06:46;;;;;;;29.08;18.35;;;20.20;99.90;;;;;;5043054;28;20036;-61
2023/08/25 07:09:13;;;;;;;28.95;18.75;;;20.30;99.90;;;;;;5038855;28;20029;-58
2023/08/25 07:11:38;;;;;;;32.33;20.02;;;20.20;99.90;;;;;;5040159;28;20033;-59
2023/08/25 07:14:04;;;;;;;22.35;16.60;;;20.20;99.90;;;;;;5041621;28;20453;-58
2023/08/25 07:16:30;;;;;;;35.63;20.02;;;20.20;99.90;;;;;;5039228;28;20030;-60
2023/08/25 07:18:55;;;;;;;35.40;20.25;;;20.20;99.90;;;;;;5040567;28;20132;-63
2023/08/25 07:21:21;;;;;;;38.22;21.33;;;20.10;99.90;;;;;;5046788;28;20032;-60
2023/08/25 07:23:47;;;;;;;28.88;17.33;;;20.00;99.90;;;;;;5042995;28;20021;-62
2023/08/25 07:26:13;;;;;;;37.90;20.77;;;20.00;99.90;;;;;;5044089;28;20013;-61
2023/08/25 07:28:39;;;;;;;35.83;19.70;;;20.00;99.90;;;;;;5042878;28;20033;-59
2023/08/25 07:31:04;;;;;;;31.95;19.90;;;20.00;99.90;;;;;;5040909;28;20045;-58
2023/08/25 07:33:30;;;;;;;27.73;17.23;;;20.10;99.90;;;;;;5047668;28;20017;-59
2023/08/25 07:35:57;;;;;;;29.27;17.60;;;20.20;99.90;;;;;;5042405;28;20547;-59
2023/08/25 07:38:23;;;;;;;32.95;20.63;;;20.30;99.90;;;;;;5038336;28;20045;-55
2023/08/25 07:40:49;;;;;;;36.78;19.45;;;20.30;99.90;;;;;;5043721;28;20436;-56
2023/08/25 07:43:15;;;;;;;76.78;20.75;;;20.40;99.90;;;;;;5036424;28;20021;-59
2023/08/25 07:45:41;;;;;;;40.28;17.70;;;20.40;99.90;;;;;;5044822;28;20032;-56
2023/08/25 07:48:07;;;;;;;39.13;17.42;;;20.40;99.90;;;;;;5035396;28;20025;-57
2023/08/25 07:50:33;;;;;;;27.92;16.95;;;20.40;99.90;;;;;;5040455;28;20021;-57
2023/08/25 07:52:58;;;;;;;28.50;15.30;;;20.40;99.90;;;;;;5041569;28;20055;-60
2023/08/25 07:55:25;;;;;;;26.60;15.35;;;20.40;99.90;;;;;;5043451;28;20029;-58
2023/08/25 07:57:51;;;;;;;34.85;18.33;;;20.50;99.90;;;;;;5039240;28;20172;-57
2023/08/25 08:00:17;;;;;;;26.48;17.08;;;20.40;99.90;;;;;;5039359;28;20497;-57
2023/08/25 08:02:44;;;;;;;23.10;15.07;;;20.40;99.90;;;;;;5034095;28;20033;-56
2023/08/25 08:05:10;;;;;;;40.25;16.17;;;20.40;99.90;;;;;;5043361;28;20418;-58
2023/08/25 08:07:36;;;;;;;30.08;16.27;;;20.30;99.90;;;;;;5036799;28;20025;-58
2023/08/25 08:10:03;;;;;;;23.45;16.58;;;20.30;99.90;;;;;;5038366;28;20028;-60
2023/08/25 08:12:29;;;;;;;35.85;18.40;;;20.20;99.90;;;;;;5048019;28;20433;-58
2023/08/25 08:14:54;;;;;;;26.98;17.20;;;20.20;99.90;;;;;;5038969;28;20029;-60
2023/08/25 08:17:20;;;;;;;33.95;17.48;;;20.20;99.90;;;;;;5032014;28;20136;-58
2023/08/25 08:19:46;;;;;;;23.42;16.95;;;20.20;99.90;;;;;;5031611;28;20032;-60
2023/08/25 08:22:11;;;;;;;25.63;17.20;;;20.10;99.90;;;;;;5045001;28;20025;-59
2023/08/25 08:24:37;;;;;;;25.77;17.83;;;20.10;99.90;;;;;;5035810;28;20355;-60
2023/08/25 08:27:03;;;;;;;24.75;17.67;;;20.10;99.90;;;;;;5042384;28;20082;-60
2023/08/25 08:29:28;;;;;;;34.95;19.30;;;20.10;99.90;;;;;;5046137;28;20025;-61
2023/08/25 08:31:57;;;;;;;46.17;22.25;;;20.10;99.90;;;;;;5040537;28;20086;-58
2023/08/25 08:34:22;;;;;;;42.28;21.00;;;20.10;99.90;;;;;;5047174;28;20083;-59
2023/08/25 08:36:48;;;;;;;28.25;19.52;;;20.10;99.90;;;;;;5049169;28;20021;-58
2023/08/25 08:39:14;;;;;;;30.27;18.10;;;20.20;99.90;;;;;;5037456;28;20391;-59
2023/08/25 08:41:40;;;;;;;37.33;22.52;;;20.30;99.90;;;;;;5041227;28;20039;-60
2023/08/25 08:44:09;;;;;;;33.58;19.25;;;20.30;99.90;;;;;;5040254;28;20100;-59
2023/08/25 08:46:39;;;;;;;38.83;22.13;;;20.30;99.90;;;;;;5035621;28;20056;-59
2023/08/25 08:49:06;;;;;;;34.50;21.33;;;20.30;99.90;;;;;;5041301;28;20104;-58
2023/08/25 08:51:33;;;;;;;36.92;22.58;;;20.30;99.90;;;;;;5041208;28;20503;-60
2023/08/25 08:54:00;;;;;;;29.90;19.02;;;20.30;99.90;;;;;;5037600;28;20115;-59
2023/08/25 08:56:26;;;;;;;31.02;21.02;;;20.30;99.90;;;;;;5039717;28;20439;-60
2023/08/25 08:58:52;;;;;;;36.03;23.85;;;20.30;99.90;;;;;;5032872;28;20037;-58
2023/08/25 09:01:18;;;;;;;41.65;24.30;;;20.50;99.90;;;;;;5034647;28;20404;-57
2023/08/25 09:03:47;;;;;;;41.08;23.98;;;20.70;99.90;;;;;;5042025;28;20420;-58
2023/08/25 09:06:13;;;;;;;42.00;23.13;;;20.90;99.90;;;;;;5039725;28;20044;-60
2023/08/25 09:08:39;;;;;;;42.42;22.95;;;21.10;99.90;;;;;;5036102;28;20057;-59
2023/08/25 09:11:05;;;;;;;42.88;25.55;;;21.20;99.90;;;;;;5038313;28;20074;-59
2023/08/25 09:13:35;;;;;;;30.58;21.65;;;21.20;99.90;;;;;;5037589;28;20049;-60
2023/08/25 09:16:11;;;;;;;38.60;23.00;;;21.40;99.90;;;;;;5039873;28;20449;-58
2023/08/25 09:18:37;;;;;;;215.10;31.65;;;21.40;99.90;;;;;;5038946;28;20509;-61
2023/08/25 09:21:13;;;;;;;32.60;19.67;;;21.40;99.90;;;;;;5036767;28;20065;-59
2023/08/25 09:23:59;;;;;;;31.60;20.23;;;21.50;99.90;;;;;;5035900;28;20464;-63
2023/08/25 09:26:25;;;;;;;36.95;19.00;;;21.50;99.90;;;;;;5032313;28;20033;-60
2023/08/25 09:28:53;;;;;;;28.33;19.55;;;21.40;99.90;;;;;;5040597;28;20017;-58
2023/08/25 09:31:29;;;;;;;27.50;17.55;;;21.40;99.90;;;;;;5032339;28;20038;-59
2023/08/25 09:34:02;;;;;;;30.90;17.60;;;21.50;99.90;;;;;;5037737;28;20021;-61
2023/08/25 09:36:29;;;;;;;20.38;15.13;;;21.40;99.90;;;;;;5033376;28;20028;-61
2023/08/25 09:38:54;;;;;;;26.42;16.90;;;21.20;99.90;;;;;;5039203;28;20021;-59
2023/08/25 09:41:24;;;;;;;30.08;17.98;;;21.20;99.90;;;;;;5041554;28;20380;-60
2023/08/25 09:43:55;;;;;;;26.20;16.83;;;21.20;99.90;;;;;;5035417;28;20398;-60
2023/08/25 09:46:30;;;;;;;24.17;15.77;;;21.30;99.90;;;;;;5035411;28;20454;-59
2023/08/25 09:49:06;;;;;;;26.70;16.02;;;21.40;99.90;;;;;;5034969;28;20021;-60
2023/08/25 09:51:43;;;;;;;26.15;17.33;;;21.40;99.90;;;;;;5033086;28;20057;-58
2023/08/25 09:54:12;;;;;;;33.30;16.85;;;21.60;99.90;;;;;;5032127;28;20411;-60
2023/08/25 09:56:40;;;;;;;32.20;19.15;;;21.60;99.90;;;;;;5038863;28;20041;-58
2023/08/25 09:59:07;;;;;;;27.77;16.75;;;21.60;99.90;;;;;;5040274;28;20029;-62
2023/08/25 10:01:42;;;;;;;25.17;16.83;;;21.50;99.90;;;;;;5033967;28;20033;-60
2023/08/25 10:04:08;;;;;;;30.10;17.33;;;21.50;99.90;;;;;;5034614;28;20104;-61
2023/08/25 10:06:37;;;;;;;25.15;16.92;;;21.40;99.90;;;;;;5032107;28;20101;-61
2023/08/25 10:09:03;;;;;;;24.27;16.38;;;21.40;99.90;;;;;;5037385;28;20113;-61
2023/08/25 10:11:50;;;;;;;25.50;18.23;;;21.50;99.90;;;;;;5039721;28;20668;-60
2023/08/25 10:14:22;;;;;;;25.23;17.30;;;21.80;99.90;;;;;;5035333;28;20084;-61
2023/08/25 10:16:52;;;;;;;20.67;15.80;;;21.80;99.90;;;;;;5036389;28;20029;-57
2023/08/25 10:19:26;;;;;;;17.77;15.02;;;21.80;99.90;;;;;;5030402;28;20029;-60
2023/08/25 10:21:53;;;;;;;20.92;15.25;;;21.70;99.90;;;;;;5034843;28;20570;-58
2023/08/25 10:24:21;;;;;;;20.25;15.50;;;21.60;99.90;;;;;;5032322;28;20475;-60
2023/08/25 10:26:48;;;;;;;18.45;15.65;;;21.50;99.90;;;;;;5039603;28;20017;-58
2023/08/25 10:29:19;;;;;;;19.38;14.30;;;21.40;99.90;;;;;;5034232;28;20029;-58
2023/08/25 10:31:51;;;;;;;20.98;16.17;;;21.30;99.90;;;;;;5036108;28;20025;-60
2023/08/25 10:34:32;;;;;;;24.77;16.92;;;21.20;99.90;;;;;;5033958;28;20048;-58
2023/08/25 10:37:30;;;;;;;21.90;16.77;;;21.20;99.90;;;;;;5032947;28;20033;-60
2023/08/25 10:40:06;;;;;;;26.15;16.67;;;21.10;99.90;;;;;;5032503;28;20045;-60
2023/08/25 10:42:33;;;;;;;28.00;18.33;;;21.10;99.90;;;;;;5040499;28;20029;-60
2023/08/25 10:45:04;;;;;;;27.20;17.70;;;21.00;99.90;;;;;;5036277;28;20036;-60
2023/08/25 10:47:30;;;;;;;24.73;17.30;;;21.00;99.90;;;;;;5031859;28;20104;-56
2023/08/25 10:50:01;;;;;;;25.90;17.65;;;21.00;99.90;;;;;;5033969;28;20431;-58
2023/08/25 10:52:26;;;;;;;33.95;17.77;;;21.10;99.90;;;;;;5038752;28;20044;-58
2023/08/25 10:54:53;;;;;;;26.08;18.13;;;21.10;99.90;;;;;;5040213;28;20033;-56
2023/08/25 10:57:28;;;;;;;25.42;17.88;;;21.10;99.90;;;;;;5038537;28;20063;-58
2023/08/25 11:00:17;;;;;;;28.33;19.08;;;21.10;99.90;;;;;;5040213;28;20032;-58
2023/08/25 11:02:43;;;;;;;27.02;17.35;;;21.00;99.90;;;;;;5031846;28;20131;-57
2023/08/25 11:05:31;;;;;;;27.63;16.63;;;21.00;99.90;;;;;;5031136;28;20672;-60
2023/08/25 11:08:00;;;;;;;25.45;15.68;;;20.90;99.90;;;;;;5040184;28;20021;-59
2023/08/25 11:10:29;;;;;;;24.27;17.05;;;20.90;99.90;;;;;;5033628;28;20078;-58
2023/08/25 11:12:55;;;;;;;24.23;17.27;;;20.90;99.90;;;;;;5039952;28;20075;-60
2023/08/25 11:15:23;;;;;;;22.45;14.93;;;20.90;99.90;;;;;;5041007;28;20447;-57
2023/08/25 11:17:49;;;;;;;20.10;14.43;;;20.90;99.90;;;;;;5041322;28;20025;-60
2023/08/25 11:20:18;;;;;;;22.15;14.70;;;20.90;99.90;;;;;;5042746;28;20033;-59
2023/08/25 11:22:54;;;;;;;24.08;13.25;;;20.80;99.90;;;;;;5048125;28;20575;-58
2023/08/25 11:25:20;;;;;;;19.13;13.32;;;20.80;99.90;;;;;;5044283;28;20016;-60
2023/08/25 11:27:49;;;;;;;21.40;13.32;;;20.90;99.90;;;;;;5041690;28;20232;-58
2023/08/25 11:30:15;;;;;;;19.85;14.25;;;20.90;99.90;;;;;;5034803;28;20026;-59
2023/08/25 11:32:41;;;;;;;26.77;15.00;;;20.90;99.90;;;;;;5035389;28;20079;-58
2023/08/25 11:35:09;;;;;;;20.98;14.52;;;20.80;99.90;;;;;;5038276;28;20025;-58
2023/08/25 11:37:35;;;;;;;20.90;15.45;;;20.70;99.90;;;;;;5036269;28;20080;-60
2023/08/25 11:40:00;;;;;;;20.23;15.20;;;20.60;99.90;;;;;;5039036;28;20030;-58
2023/08/25 11:42:26;;;;;;;27.23;15.95;;;20.50;99.90;;;;;;5037238;28;20466;-61
2023/08/25 11:44:52;;;;;;;23.88;17.58;;;20.50;99.90;;;;;;5033304;28;20410;-56
2023/08/25 11:47:20;;;;;;;27.00;15.30;;;20.50;99.90;;;;;;5036929;28;20117;-59
2023/08/25 11:49:48;;;;;;;34.55;18.50;;;20.60;99.90;;;;;;5038507;28;20381;-59
2023/08/25 11:52:15;;;;;;;32.85;18.38;;;20.70;99.90;;;;;;5035569;28;20079;-61
2023/08/25 11:54:48;;;;;;;31.80;18.52;;;20.60;99.90;;;;;;5033760;28;20112;-61
2023/08/25 11:57:14;;;;;;;31.15;19.60;;;20.70;99.90;;;;;;5033303;28;20033;-60
2023/08/25 11:59:47;;;;;;;28.30;19.50;;;20.90;99.90;;;;;;5041055;28;20025;-58
2023/08/25 12:02:17;;;;;;;30.50;18.80;;;20.90;99.90;;;;;;5035217;28;20037;-58
2023/08/25 12:04:55;;;;;;;30.70;19.80;;;20.90;99.90;;;;;;5036613;28;20022;-58
2023/08/25 12:07:25;;;;;;;35.67;21.42;;;21.00;99.90;;;;;;5038558;28;20030;-59
2023/08/25 12:09:54;;;;;;;35.15;23.63;;;21.20;99.90;;;;;;5037716;28;20021;-57
2023/08/25 12:12:21;;;;;;;29.80;21.08;;;21.30;99.90;;;;;;5037346;28;20033;-57
2023/08/25 12:14:50;;;;;;;37.15;24.02;;;21.40;99.90;;;;;;5038740;28;20026;-57
2023/08/25 12:17:29;;;;;;;30.58;21.50;;;21.40;99.90;;;;;;5035805;28;20022;-60
2023/08/25 12:19:56;;;;;;;30.85;22.33;;;21.20;99.90;;;;;;5035291;28;20037;-60
2023/08/25 12:22:25;;;;;;;33.55;24.33;;;21.20;99.90;;;;;;5037711;28;20021;-59
2023/08/25 12:24:50;;;;;;;31.05;23.77;;;21.20;99.90;;;;;;5040650;28;20030;-59
2023/08/25 12:27:18;;;;;;;34.50;23.92;;;21.00;99.90;;;;;;5035336;28;20028;-60
2023/08/25 12:29:43;;;;;;;36.95;26.83;;;21.10;99.90;;;;;;5043788;28;20508;-60
2023/08/25 12:32:09;;;;;;;37.55;25.90;;;21.30;99.90;;;;;;5035547;28;20040;-60